GMADGMML

Guest
Details From GMAD - Agadir AL MASSIRA
To GMML - HASSAN I
Flight Number -
Tags generated
Created
Modified
Stats Distance 277 nm / 513 km
Max Altitude 14,600 ft / 4,450 m
Waypoints 5
Social Downloads 4
Likes 0
Share VATSIM

Download

Looking for another format? Having issues loading an existing format? Contact us
Advertisement - Login to hide

Notes

Basic altitude profile: - Ascent Rate: 2500ft/min - Ascent Speed: 250kts - Cruise Altitude: 15000ft - Cruise Speed: 420kts - Descent Rate: 1500ft/min - Descent Speed: 250kts Options: - Use NATs: yes - Use PACOTS: yes - Use low airways: yes - Use high airways: yes

Route

GMAD AMLOK A600 LAY GMML

ID Type Via Altitude Latitude Longitude Leg Dist Tot Dist Heading (true) Name
O GMAD APT - 0 ft / 0 m 30.32262˚ -9.41153˚ - 0 nm - Agadir AL MASSIRA
AMLOK FIX - 14,600 ft / 4,450 m 29.81667˚ -10.02250˚ 43 nm 43 nm 226° / 226° -
SOLNA FIX A600 (AWY-LO) 12,500 ft / 3,810 m 27.66667˚ -12.59528˚ 187 nm 231 nm 227° / 226° -
LAY VOR A600 (AWY-LO) 5,500 ft / 1,676 m 27.14285˚ -13.21795˚ 45 nm 276 nm 227° / 226° LAAYOUNE VOR-DME
O GMML APT - 0 ft / 0 m 27.14365˚ -13.22540˚ 0 nm 277 nm 277° / 277° HASSAN I

Altitude Profile

Advertisement - Login to hide

Weather


0- 5 10 15 20 25 30 35+ Temperature / ° C

Clouds and Precipitation
Forecast for 2017-12-14 18:00 UTC. Updated 25 minutes ago

Ground ~20,000 ft ~40,000 ft Winds

GMAD

Details ICAO GMAD
Name Agadir AL MASSIRA
Region Morocco
Timezone Africa/Casablanca (UTC+0.0)
Stats Elevation 250 ft / 76 m (AMSL)
Location 30.322623° -9.411528°
Runways 1
Magnetic Variation 2.482° W

METAR

GMAD 141530Z 26010KT CAVOK 20/10 Q1020 NOSIG

Decode

TAF

TAF GMAD 141100Z 1412/1518 27008KT CAVOK= TAF GMME 141100Z 1412/1518 36010KT 9999 FEW016 TEMPO 1420/1512 14008KT PROB40 TEMPO 1512/1518 24011KT 6000 RA BKN013 SCT020 BKN080

Decode

Departure Runways

ID Width Length Bearing (true) Bearing (mag) Surface Threshold Offset Overrun Length
10 148 ft / 45 m 10,509 ft / 3,203 m 91.58° 94.06° Asphalt 0 ft / 0 m 0 ft / 0 m
28 148 ft / 45 m 10,509 ft / 3,203 m 271.60° 274.08° Asphalt 0 ft / 0 m 0 ft / 0 m

GMML

Details ICAO GMML (EUN)
Name HASSAN I
Region Morocco
Timezone Africa/El_Aaiun (UTC+0.0)
Stats Elevation 207 ft / 63 m (AMSL)
Location 27.143650° -13.225399°
Runways 2
Magnetic Variation 3.957° W

METAR

GMML 141500Z 02016KT CAVOK 23/12 Q1022 NOSIG

Decode

TAF

TAF GMML 141100Z 1412/1518 02014KT 9999 FEW030 PROB40 1503/1508 2000 BR SCT010 BECMG 1507/1509 SCT013

Decode

Destination Runways

ID Width Length Bearing (true) Bearing (mag) Surface Threshold Offset Overrun Length
02 148 ft / 45 m 8,890 ft / 2,710 m 16.42° 20.38° Asphalt 0 ft / 0 m 200 ft / 61 m
04 148 ft / 45 m 8,221 ft / 2,506 m 31.58° 35.54° Asphalt 0 ft / 0 m 0 ft / 0 m
20 148 ft / 45 m 8,890 ft / 2,710 m 196.43° 200.39° Asphalt 0 ft / 0 m 200 ft / 61 m
22 148 ft / 45 m 8,221 ft / 2,506 m 211.59° 215.55° Asphalt 0 ft / 0 m 658 ft / 201 m

Popular Alternatives